createdAt,value
2022-08-17T00:00:00.999Z,20.22
2022-08-17T00:02:27.985Z,20.16
2022-08-17T00:04:56.034Z,20.06
2022-08-17T00:07:23.128Z,20.09
2022-08-17T00:09:50.262Z,19.95
2022-08-17T00:12:41.578Z,19.88
2022-08-17T00:15:06.246Z,19.89
2022-08-17T00:17:38.083Z,19.87
2022-08-17T00:20:06.636Z,19.97
2022-08-17T00:22:36.538Z,19.88
2022-08-17T00:25:17.595Z,19.95
2022-08-17T00:27:44.421Z,19.89
2022-08-17T00:30:13.252Z,19.85
2022-08-17T00:33:12.287Z,19.55
2022-08-17T00:35:35.215Z,19.46
2022-08-17T00:38:04.069Z,19.40
2022-08-17T00:40:39.916Z,19.51
2022-08-17T00:43:45.598Z,19.47
2022-08-17T00:46:29.968Z,19.43
2022-08-17T00:48:57.427Z,19.52
2022-08-17T00:51:46.519Z,19.42
2022-08-17T00:54:18.732Z,19.38
2022-08-17T00:56:57.196Z,19.46
2022-08-17T00:59:31.847Z,19.60
2022-08-17T01:02:00.594Z,19.50
2022-08-17T01:04:31.372Z,19.42
2022-08-17T01:07:01.258Z,19.41
2022-08-17T01:09:28.491Z,19.37
2022-08-17T01:11:55.939Z,19.28
2022-08-17T01:14:25.544Z,19.17
2022-08-17T01:16:55.638Z,19.14
2022-08-17T01:19:31.006Z,19.10
2022-08-17T01:22:20.979Z,19.03
2022-08-17T01:24:57.618Z,18.99
2022-08-17T01:27:26.584Z,19.03
2022-08-17T01:30:00.834Z,18.95
2022-08-17T01:32:30.352Z,18.90
2022-08-17T01:34:58.215Z,19.05
2022-08-17T01:37:34.435Z,19.22
2022-08-17T01:40:33.527Z,19.24
2022-08-17T01:43:08.517Z,19.13
2022-08-17T01:45:44.639Z,19.03
2022-08-17T01:48:13.019Z,19.10
2022-08-17T01:50:44.234Z,19.00
2022-08-17T01:53:19.746Z,18.96
2022-08-17T01:55:52.330Z,18.87
2022-08-17T01:58:21.349Z,18.84
2022-08-17T02:01:00.994Z,18.85
2022-08-17T02:03:29.782Z,18.85
2022-08-17T02:05:57.095Z,18.84
2022-08-17T02:08:37.162Z,18.81
2022-08-17T02:11:12.494Z,18.89
2022-08-17T02:13:40.387Z,18.94
2022-08-17T02:16:07.472Z,18.81
2022-08-17T02:18:34.539Z,18.74
2022-08-17T02:21:02.278Z,18.72
2022-08-17T02:23:32.808Z,18.71
2022-08-17T02:26:01.335Z,18.74
2022-08-17T02:28:29.209Z,18.84
2022-08-17T02:31:01.747Z,18.80
2022-08-17T02:33:43.100Z,18.84
2022-08-17T02:36:12.704Z,18.84
2022-08-17T02:38:41.230Z,18.88
2022-08-17T02:41:09.048Z,18.85
2022-08-17T02:43:35.954Z,18.88
2022-08-17T02:46:02.829Z,18.89
2022-08-17T02:48:31.436Z,18.97
2022-08-17T02:51:01.033Z,18.99
2022-08-17T02:53:33.660Z,18.90
2022-08-17T02:56:03.536Z,18.94
2022-08-17T02:58:35.261Z,18.97
2022-08-17T03:01:09.631Z,18.92
2022-08-17T03:03:38.142Z,18.78
2022-08-17T03:06:07.541Z,18.74
2022-08-17T03:08:35.506Z,18.80
2022-08-17T03:11:02.349Z,18.90
2022-08-17T03:13:30.896Z,18.83
2022-08-17T03:15:58.412Z,18.81
2022-08-17T03:18:26.346Z,18.82
2022-08-17T03:21:00.447Z,18.87
2022-08-17T03:23:29.718Z,18.95
2022-08-17T03:25:58.652Z,19.07
2022-08-17T03:28:26.050Z,19.16
2022-08-17T03:30:52.920Z,19.14
2022-08-17T03:33:20.311Z,19.00
2022-08-17T03:35:47.423Z,19.07
2022-08-17T03:38:17.374Z,19.14
2022-08-17T03:40:57.471Z,19.26
2022-08-17T03:43:30.854Z,19.40
2022-08-17T03:46:28.310Z,19.43
2022-08-17T03:49:25.677Z,19.23
2022-08-17T03:52:13.927Z,19.28
2022-08-17T03:55:02.264Z,19.23
2022-08-17T03:57:29.184Z,19.08
2022-08-17T03:59:56.906Z,19.08
2022-08-17T04:02:34.314Z,18.99
2022-08-17T04:05:02.069Z,19.00
2022-08-17T04:07:31.507Z,19.29
2022-08-17T04:10:00.456Z,19.30
2022-08-17T04:12:31.567Z,19.30
2022-08-17T04:14:59.155Z,19.38
2022-08-17T04:17:28.901Z,19.39
2022-08-17T04:19:56.697Z,19.44
2022-08-17T04:22:31.994Z,19.48
2022-08-17T04:25:09.901Z,19.40
2022-08-17T04:27:37.121Z,19.34
2022-08-17T04:30:07.239Z,19.33
2022-08-17T04:33:06.430Z,19.52
2022-08-17T04:35:50.017Z,19.58
2022-08-17T04:38:21.862Z,19.45
2022-08-17T04:41:07.830Z,19.38
2022-08-17T04:43:36.762Z,19.40
2022-08-17T04:46:10.388Z,19.42
2022-08-17T04:48:42.585Z,19.43
2022-08-17T04:51:27.837Z,19.54
2022-08-17T04:54:00.381Z,19.61
2022-08-17T04:56:29.609Z,19.58
2022-08-17T04:59:02.590Z,19.54
2022-08-17T05:01:34.486Z,19.55
2022-08-17T05:04:33.283Z,19.69
2022-08-17T05:06:55.047Z,19.83
2022-08-17T05:09:22.160Z,19.88
2022-08-17T05:11:51.311Z,19.99
2022-08-17T05:14:18.237Z,19.98
2022-08-17T05:16:45.759Z,19.92
2022-08-17T05:19:12.627Z,19.90
2022-08-17T05:21:39.542Z,19.97
2022-08-17T05:24:38.374Z,19.91
2022-08-17T05:26:53.404Z,19.75
2022-08-17T05:29:22.157Z,19.48
2022-08-17T05:32:39.173Z,19.52
2022-08-17T05:35:00.424Z,19.61
2022-08-17T05:37:28.011Z,19.77
2022-08-17T05:39:55.233Z,19.95
2022-08-17T05:42:22.582Z,20.00
2022-08-17T05:44:49.488Z,19.96
2022-08-17T05:47:18.022Z,20.07
2022-08-17T05:49:44.985Z,20.15
2022-08-17T05:52:56.251Z,20.17
2022-08-17T05:56:29.465Z,20.14
2022-08-17T05:59:37.742Z,20.04
2022-08-17T06:02:22.284Z,20.05
2022-08-17T06:05:29.172Z,19.99
2022-08-17T06:08:32.268Z,19.99
2022-08-17T06:11:44.190Z,20.25
2022-08-17T06:14:35.579Z,20.43
2022-08-17T06:17:09.398Z,20.56
2022-08-17T06:20:01.432Z,20.69
2022-08-17T06:22:37.920Z,20.90
2022-08-17T06:25:17.901Z,20.96
2022-08-17T06:27:55.912Z,20.92
2022-08-17T06:30:57.799Z,20.86
2022-08-17T06:33:24.621Z,20.99
2022-08-17T06:36:40.176Z,21.05
2022-08-17T06:39:40.975Z,21.09
2022-08-17T06:43:02.597Z,21.12
2022-08-17T06:45:39.100Z,21.15
2022-08-17T06:48:31.212Z,21.18
2022-08-17T06:51:25.913Z,21.28
2022-08-17T06:53:59.896Z,21.39
2022-08-17T06:57:05.770Z,21.51
2022-08-17T06:59:57.358Z,21.59
2022-08-17T07:03:15.461Z,21.73
2022-08-17T07:06:01.632Z,21.77
2022-08-17T07:08:51.140Z,21.83
2022-08-17T07:11:39.867Z,21.89
2022-08-17T07:14:38.154Z,22.01
2022-08-17T07:17:12.055Z,22.09
2022-08-17T07:19:45.622Z,22.10
2022-08-17T07:22:53.511Z,22.06
2022-08-17T07:25:28.492Z,21.98
2022-08-17T07:28:00.766Z,22.04
2022-08-17T07:30:40.081Z,22.10
2022-08-17T07:33:21.218Z,22.04
2022-08-17T07:35:50.211Z,21.94
2022-08-17T07:38:35.770Z,21.91
2022-08-17T07:41:10.609Z,22.02
2022-08-17T07:43:52.805Z,22.03
2022-08-17T07:46:50.768Z,21.92
2022-08-17T07:49:40.712Z,22.08
2022-08-17T07:52:47.865Z,22.08
2022-08-17T07:55:32.851Z,22.22
2022-08-17T07:58:00.199Z,22.30
2022-08-17T08:00:32.295Z,22.26
2022-08-17T08:03:11.302Z,22.13
2022-08-17T08:06:01.898Z,22.27
2022-08-17T08:08:43.300Z,22.38
2022-08-17T08:11:29.749Z,22.49
2022-08-17T08:14:29.559Z,22.57
2022-08-17T08:17:06.353Z,22.49
2022-08-17T08:19:36.497Z,22.51
2022-08-17T08:22:22.029Z,22.56
2022-08-17T08:25:07.898Z,22.63
2022-08-17T08:28:10.798Z,22.60
2022-08-17T08:30:49.397Z,22.63
2022-08-17T08:33:39.875Z,22.66
2022-08-17T08:37:12.668Z,22.66
2022-08-17T08:39:28.540Z,22.69
2022-08-17T08:42:17.677Z,22.66
2022-08-17T08:45:09.831Z,22.72
2022-08-17T08:48:23.127Z,22.79
2022-08-17T08:51:13.546Z,22.89
2022-08-17T08:53:47.726Z,22.96
2022-08-17T08:57:04.987Z,22.79
2022-08-17T09:00:02.108Z,22.74
2022-08-17T09:03:37.592Z,22.66
2022-08-17T09:06:57.908Z,22.72
2022-08-17T09:09:59.333Z,22.76
2022-08-17T09:13:20.764Z,22.79
2022-08-17T09:16:46.133Z,22.77
2022-08-17T09:19:44.655Z,22.78
2022-08-17T09:22:36.231Z,22.69
2022-08-17T09:25:12.701Z,22.66
2022-08-17T09:28:02.348Z,22.61
2022-08-17T09:30:43.667Z,22.64
2022-08-17T09:33:17.559Z,22.73
2022-08-17T09:36:14.408Z,22.82
2022-08-17T09:39:10.909Z,22.82
2022-08-17T09:42:04.779Z,22.82
2022-08-17T09:44:44.129Z,22.76
2022-08-17T09:47:45.421Z,22.70
2022-08-17T09:51:05.173Z,22.61
2022-08-17T09:53:27.383Z,22.56
2022-08-17T09:56:25.235Z,22.61
2022-08-17T09:59:01.171Z,22.53
2022-08-17T10:01:55.825Z,22.25
2022-08-17T10:04:48.392Z,22.15
2022-08-17T10:07:28.752Z,22.17
2022-08-17T10:10:32.367Z,22.11
2022-08-17T10:13:19.750Z,22.05
2022-08-17T10:16:29.046Z,22.12
2022-08-17T10:19:30.462Z,22.10
2022-08-17T10:22:34.836Z,22.12
2022-08-17T10:25:42.548Z,22.27
2022-08-17T10:28:25.827Z,22.49
2022-08-17T10:31:33.088Z,22.64
2022-08-17T10:34:23.977Z,22.77
2022-08-17T10:37:05.815Z,22.87
2022-08-17T10:39:54.368Z,22.87
2022-08-17T10:42:32.745Z,22.91
2022-08-17T10:45:14.384Z,22.93
2022-08-17T10:48:31.044Z,22.95
2022-08-17T10:51:11.041Z,22.95
2022-08-17T10:53:41.799Z,22.91
2022-08-17T10:56:15.396Z,22.95
2022-08-17T10:58:58.936Z,22.97
2022-08-17T11:01:38.000Z,23.05
2022-08-17T11:04:11.112Z,23.10
2022-08-17T11:06:37.816Z,23.14
2022-08-17T11:09:55.730Z,23.31
2022-08-17T11:12:54.743Z,23.51
2022-08-17T11:15:36.923Z,23.60
2022-08-17T11:18:34.846Z,23.62
2022-08-17T11:21:29.699Z,23.78
2022-08-17T11:24:26.740Z,23.90
2022-08-17T11:27:33.798Z,24.11
2022-08-17T11:30:04.608Z,24.22
2022-08-17T11:32:52.876Z,24.28
2022-08-17T11:35:21.685Z,24.32
2022-08-17T11:38:46.144Z,24.36
2022-08-17T11:42:07.227Z,24.29
2022-08-17T11:45:07.337Z,24.23
2022-08-17T11:48:35.710Z,24.20
2022-08-17T11:51:33.449Z,24.15
2022-08-17T11:54:34.145Z,24.23
2022-08-17T11:57:27.630Z,24.28
2022-08-17T12:00:14.235Z,24.34
2022-08-17T12:02:48.191Z,24.44
2022-08-17T12:05:19.348Z,24.51
2022-08-17T12:08:06.934Z,24.58
2022-08-17T12:10:41.462Z,24.62
2022-08-17T12:13:16.875Z,24.67
2022-08-17T12:15:49.738Z,24.71
2022-08-17T12:18:32.333Z,24.74
2022-08-17T12:21:15.365Z,24.68
2022-08-17T12:23:53.309Z,24.70
2022-08-17T12:26:26.999Z,24.85
2022-08-17T12:29:01.798Z,24.86
2022-08-17T12:31:54.193Z,24.80
2022-08-17T12:34:36.029Z,24.81
2022-08-17T12:37:15.195Z,24.89
2022-08-17T12:40:05.095Z,25.13
2022-08-17T12:42:41.333Z,25.37
2022-08-17T12:45:25.587Z,25.55
2022-08-17T12:48:14.208Z,25.90
2022-08-17T12:50:45.795Z,26.21
2022-08-17T12:53:17.052Z,27.96
2022-08-17T12:55:44.517Z,28.99
2022-08-17T12:58:30.361Z,30.12
2022-08-17T13:01:09.104Z,31.16
2022-08-17T13:03:44.281Z,31.53
2022-08-17T13:06:25.608Z,31.76
2022-08-17T13:08:52.458Z,31.32
2022-08-17T13:11:24.757Z,30.66
2022-08-17T13:13:56.004Z,30.11
2022-08-17T13:16:29.712Z,29.92
2022-08-17T13:19:15.158Z,30.81
2022-08-17T13:21:51.769Z,30.99
2022-08-17T13:24:21.327Z,31.61
2022-08-17T13:27:08.618Z,31.90
2022-08-17T13:29:53.446Z,31.15
2022-08-17T13:32:39.902Z,30.90
2022-08-17T13:35:50.131Z,30.69
2022-08-17T13:38:47.864Z,29.87
2022-08-17T13:41:36.955Z,29.82
2022-08-17T13:44:31.063Z,30.46
2022-08-17T13:46:59.669Z,31.16
2022-08-17T13:49:41.582Z,31.76
2022-08-17T13:52:52.305Z,31.68
2022-08-17T13:55:28.399Z,31.50
2022-08-17T13:58:07.009Z,31.66
2022-08-17T14:01:21.513Z,31.56
2022-08-17T14:03:53.471Z,31.02
2022-08-17T14:06:49.325Z,30.57
2022-08-17T14:09:09.273Z,30.11
2022-08-17T14:11:36.418Z,29.71
2022-08-17T14:14:04.065Z,29.50
2022-08-17T14:16:31.079Z,29.40
2022-08-17T14:18:58.190Z,29.28
2022-08-17T14:21:25.022Z,28.94
2022-08-17T14:23:54.881Z,28.65
2022-08-17T14:26:23.421Z,28.68
2022-08-17T14:28:56.325Z,28.75
2022-08-17T14:31:24.528Z,29.02
2022-08-17T14:33:52.121Z,29.01
2022-08-17T14:36:19.360Z,29.10
2022-08-17T14:38:46.226Z,29.32
2022-08-17T14:41:21.457Z,29.78
2022-08-17T14:43:50.596Z,29.90
2022-08-17T14:46:17.850Z,29.64
2022-08-17T14:48:46.088Z,29.25
2022-08-17T14:51:13.038Z,29.09
2022-08-17T14:53:42.611Z,28.88
2022-08-17T14:56:09.473Z,28.73
2022-08-17T14:58:36.614Z,28.70
2022-08-17T15:01:11.331Z,28.60
2022-08-17T15:03:42.229Z,28.53
2022-08-17T15:06:15.261Z,28.45
2022-08-17T15:08:44.035Z,28.39
2022-08-17T15:11:14.278Z,28.30
2022-08-17T15:13:52.567Z,28.19
2022-08-17T15:16:20.514Z,28.11
2022-08-17T15:18:47.469Z,28.08
2022-08-17T15:21:15.782Z,28.03
2022-08-17T15:23:43.561Z,28.00
2022-08-17T15:26:11.689Z,27.97
2022-08-17T15:28:38.621Z,27.95
2022-08-17T15:31:06.882Z,27.98
2022-08-17T15:33:34.266Z,27.94
2022-08-17T15:36:09.277Z,27.95
2022-08-17T15:38:39.727Z,27.90
2022-08-17T15:41:15.142Z,27.94
2022-08-17T15:43:44.459Z,28.03
2022-08-17T15:46:19.209Z,28.07
2022-08-17T15:48:50.545Z,28.12
2022-08-17T15:51:30.901Z,28.11
2022-08-17T15:54:19.046Z,28.06
2022-08-17T15:56:49.723Z,27.92
2022-08-17T15:59:16.850Z,27.89
2022-08-17T16:03:14.651Z,27.81
2022-08-17T16:04:31.901Z,27.74
2022-08-17T16:06:59.906Z,27.66
2022-08-17T16:09:27.582Z,27.61
2022-08-17T16:11:56.153Z,27.52
2022-08-17T16:14:32.325Z,27.47
2022-08-17T16:17:00.602Z,27.44
2022-08-17T16:19:27.423Z,27.41
2022-08-17T16:21:54.278Z,27.37
2022-08-17T16:24:21.194Z,27.30
2022-08-17T16:26:48.072Z,27.25
2022-08-17T16:29:15.005Z,27.22
2022-08-17T16:31:43.162Z,27.09
2022-08-17T16:34:17.371Z,27.00
2022-08-17T16:36:51.793Z,26.94
2022-08-17T16:39:29.008Z,26.88
2022-08-17T16:41:57.490Z,26.79
2022-08-17T16:44:31.763Z,26.68
2022-08-17T16:47:02.478Z,26.60
2022-08-17T16:49:36.656Z,26.51
2022-08-17T16:52:10.192Z,26.46
2022-08-17T16:54:43.279Z,26.42
2022-08-17T16:57:11.475Z,26.38
2022-08-17T16:59:40.742Z,26.34
2022-08-17T17:02:12.769Z,26.30
2022-08-17T17:05:06.804Z,26.23
2022-08-17T17:08:08.932Z,26.17
2022-08-17T17:10:44.342Z,26.08
2022-08-17T17:13:32.288Z,26.05
2022-08-17T17:16:15.948Z,26.05
2022-08-17T17:19:08.843Z,25.96
2022-08-17T17:22:15.033Z,25.92
2022-08-17T17:25:03.274Z,25.81
2022-08-17T17:27:48.959Z,25.73
2022-08-17T17:30:43.341Z,25.67
2022-08-17T17:33:19.631Z,25.57
2022-08-17T17:36:06.908Z,25.58
2022-08-17T17:39:17.973Z,25.52
2022-08-17T17:42:07.590Z,25.53
2022-08-17T17:44:43.469Z,25.50
2022-08-17T17:47:12.753Z,25.47
2022-08-17T17:49:46.110Z,25.44
2022-08-17T17:52:37.100Z,25.31
2022-08-17T17:55:16.133Z,25.15
2022-08-17T17:58:08.454Z,25.12
2022-08-17T18:01:08.502Z,25.11
2022-08-17T18:03:58.892Z,25.01
2022-08-17T18:06:39.669Z,25.00
2022-08-17T18:09:41.625Z,24.98
2022-08-17T18:12:28.462Z,24.98
2022-08-17T18:15:36.969Z,25.00
2022-08-17T18:18:17.166Z,24.87
2022-08-17T18:20:55.764Z,24.79
2022-08-17T18:23:28.226Z,24.74
2022-08-17T18:25:56.710Z,24.75
2022-08-17T18:28:32.932Z,24.78
2022-08-17T18:31:09.190Z,24.75
2022-08-17T18:33:39.205Z,24.68
2022-08-17T18:36:07.525Z,24.62
2022-08-17T18:38:42.510Z,24.54
2022-08-17T18:41:30.286Z,24.45
2022-08-17T18:44:15.957Z,24.33
2022-08-17T18:46:42.905Z,24.33
2022-08-17T18:49:28.162Z,24.25
2022-08-17T18:52:28.800Z,24.14
2022-08-17T18:55:15.335Z,24.07
2022-08-17T18:57:47.616Z,24.04
2022-08-17T19:00:41.099Z,23.93
2022-08-17T19:03:20.053Z,23.78
2022-08-17T19:05:48.558Z,23.76
2022-08-17T19:08:33.487Z,23.77
2022-08-17T19:11:16.756Z,23.74
2022-08-17T19:14:06.504Z,23.66
2022-08-17T19:17:12.130Z,23.61
2022-08-17T19:20:18.558Z,23.56
2022-08-17T19:23:04.064Z,23.62
2022-08-17T19:25:37.917Z,23.66
2022-08-17T19:28:48.634Z,23.65
2022-08-17T19:31:23.989Z,23.62
2022-08-17T19:33:51.581Z,23.61
2022-08-17T19:36:25.604Z,23.59
2022-08-17T19:39:20.944Z,23.51
2022-08-17T19:42:06.179Z,23.48
2022-08-17T19:44:59.486Z,23.36
2022-08-17T19:48:03.185Z,23.29
2022-08-17T19:50:49.930Z,23.33
2022-08-17T19:54:06.412Z,23.39
2022-08-17T19:57:01.821Z,23.34
2022-08-17T20:00:05.023Z,23.18
2022-08-17T20:02:48.476Z,23.15
2022-08-17T20:05:25.911Z,23.15
2022-08-17T20:08:13.422Z,23.17
2022-08-17T20:11:10.063Z,23.16
2022-08-17T20:14:09.782Z,23.11
2022-08-17T20:16:36.605Z,23.03
2022-08-17T20:22:11.413Z,22.69
2022-08-17T20:24:55.131Z,22.76
2022-08-17T20:27:31.678Z,22.78
2022-08-17T20:30:04.025Z,22.82
2022-08-17T20:32:51.754Z,22.92
2022-08-17T20:35:33.726Z,22.95
2022-08-17T20:38:34.083Z,22.93
2022-08-17T20:41:10.008Z,22.90
2022-08-17T20:43:37.190Z,22.85
2022-08-17T20:46:28.197Z,22.78
2022-08-17T20:49:14.710Z,22.65
2022-08-17T20:52:02.438Z,22.70
2022-08-17T20:54:54.929Z,22.68
2022-08-17T20:57:37.122Z,22.61
2022-08-17T21:00:30.095Z,22.61
2022-08-17T21:03:22.419Z,22.61
2022-08-17T21:06:17.104Z,22.53
2022-08-17T21:09:16.526Z,22.46
2022-08-17T21:12:02.968Z,22.48
2022-08-17T21:15:00.984Z,22.47
2022-08-17T21:17:56.333Z,22.48
2022-08-17T21:20:44.377Z,22.59
2022-08-17T21:23:26.003Z,22.63
2022-08-17T21:26:30.789Z,22.63
2022-08-17T21:29:31.889Z,22.53
2022-08-17T21:32:06.281Z,22.32
2022-08-17T21:34:35.560Z,22.32
2022-08-17T21:37:30.462Z,22.28
2022-08-17T21:40:11.210Z,22.26
2022-08-17T21:42:47.913Z,22.23
2022-08-17T21:45:36.387Z,22.19
2022-08-17T21:48:19.812Z,22.21
2022-08-17T21:51:01.739Z,22.28
2022-08-17T21:53:59.922Z,22.29
2022-08-17T21:56:36.292Z,22.37
2022-08-17T21:59:28.393Z,22.42
2022-08-17T22:02:00.526Z,22.37
2022-08-17T22:04:30.995Z,22.23
2022-08-17T22:07:02.412Z,22.10
2022-08-17T22:09:45.947Z,22.11
2022-08-17T22:12:21.042Z,22.18
2022-08-17T22:15:06.140Z,22.24
2022-08-17T22:17:46.510Z,22.14
2022-08-17T22:20:20.924Z,22.12
2022-08-17T22:23:09.219Z,22.09
2022-08-17T22:26:00.096Z,22.04
2022-08-17T22:28:47.266Z,22.01
2022-08-17T22:31:24.750Z,22.05
2022-08-17T22:34:15.825Z,22.02
2022-08-17T22:36:43.082Z,21.94
2022-08-17T22:39:09.853Z,21.77
2022-08-17T22:41:59.366Z,21.69
2022-08-17T22:44:47.944Z,21.68
2022-08-17T22:47:14.737Z,21.81
2022-08-17T22:50:25.680Z,21.85
2022-08-17T22:53:22.765Z,21.74
2022-08-17T22:56:17.596Z,21.59
2022-08-17T22:59:31.474Z,21.38
2022-08-17T23:02:21.742Z,21.17
2022-08-17T23:05:16.526Z,21.15
2022-08-17T23:07:46.995Z,21.24
2022-08-17T23:10:14.961Z,21.22
2022-08-17T23:12:42.427Z,21.17
2022-08-17T23:15:19.093Z,21.18
2022-08-17T23:17:46.261Z,21.18
2022-08-17T23:20:15.976Z,21.21
2022-08-17T23:22:51.845Z,21.24
2022-08-17T23:25:31.410Z,21.27
2022-08-17T23:28:01.463Z,21.23
2022-08-17T23:30:32.529Z,21.20
2022-08-17T23:33:04.710Z,21.24
2022-08-17T23:35:40.578Z,21.27
2022-08-17T23:38:10.703Z,21.21
2022-08-17T23:40:39.997Z,21.16
2022-08-17T23:43:24.775Z,21.13
2022-08-17T23:45:59.669Z,21.10
2022-08-17T23:48:36.132Z,20.99
2022-08-17T23:51:09.364Z,20.77
2022-08-17T23:53:42.438Z,20.67
2022-08-17T23:56:11.167Z,20.55
2022-08-17T23:58:43.752Z,20.45
